RYR83SA EDJA-EPKK
Flight info
| Callsign | RYR83SA |
|---|---|
| Flight time | N/A |
| Altitude | 35000 |
| Route | KPT4B KPT Z999 BEMKI L607 XEBIX N871 BEPAS DCT NELPA DCT PADKA |
| Aircraft | B738/M-SDE2E3FGHIRWXY/LB1 |
Departure
| Time | 2026-05-09 13:58 |
|---|---|
| Airport | Memmingen Allgau Airport (EDJA) |
Arrival
| Time | N/A |
|---|---|
| Airport | Kraków John Paul II International Airport (EPKK) |
| Time | Latitude | Longitude | Altitude | Speed | Heading |
|---|---|---|---|---|---|
| 2026-05-09 13:43 | 47.98727 | 10.22723 | 2071 ft | 0 kts | 100° |
| 2026-05-09 13:54 | 47.98727 | 10.22724 | 2071 ft | 0 kts | 100° |
| 2026-05-09 13:55 | 47.98726 | 10.22728 | 2071 ft | 0 kts | 100° |
| 2026-05-09 13:55 | 47.98726 | 10.22732 | 2071 ft | 0 kts | 101° |
| 2026-05-09 13:55 | 47.98724 | 10.22737 | 2071 ft | 0 kts | 126° |
| 2026-05-09 13:55 | 47.98679 | 10.22730 | 2071 ft | 19 kts | 191° |
| 2026-05-09 13:56 | 47.98500 | 10.22682 | 2071 ft | 26 kts | 223° |
| 2026-05-09 13:56 | 47.98408 | 10.22536 | 2071 ft | 9 kts | 166° |
| 2026-05-09 13:56 | 47.98396 | 10.22545 | 2071 ft | 0 kts | 148° |
| 2026-05-09 13:56 | 47.98362 | 10.22601 | 2071 ft | 17 kts | 106° |
| 2026-05-09 13:57 | 47.98474 | 10.22925 | 2071 ft | 62 kts | 57° |
| 2026-05-09 13:57 | 47.98808 | 10.23756 | 2071 ft | 124 kts | 59° |
| 2026-05-09 13:57 | 47.99363 | 10.25123 | 2083 ft | 174 kts | 57° |
| 2026-05-09 13:57 | 48.00016 | 10.26703 | 2422 ft | 191 kts | 59° |
| 2026-05-09 13:58 | 48.00648 | 10.28445 | 2808 ft | 180 kts | 62° |
| 2026-05-09 13:58 | 48.01227 | 10.30201 | 3101 ft | 197 kts | 62° |
| 2026-05-09 13:58 | 48.01935 | 10.31999 | 3677 ft | 203 kts | 55° |
| 2026-05-09 13:58 | 48.02698 | 10.33768 | 4248 ft | 202 kts | 56° |
| 2026-05-09 13:59 | 48.03468 | 10.35646 | 4420 ft | 224 kts | 62° |
| 2026-05-09 13:59 | 48.03819 | 10.37779 | 4517 ft | 247 kts | 95° |
| 2026-05-09 13:59 | 48.03149 | 10.40207 | 5206 ft | 247 kts | 134° |
| 2026-05-09 13:59 | 48.01733 | 10.41475 | 5953 ft | 241 kts | 168° |
| 2026-05-09 14:00 | 48.00139 | 10.42050 | 6769 ft | 239 kts | 166° |
| 2026-05-09 14:00 | 47.99600 | 10.42284 | 6984 ft | 241 kts | 166° |
| 2026-05-09 14:00 | 47.96840 | 10.42578 | 7912 ft | 252 kts | 193° |
| 2026-05-09 14:00 | 47.95076 | 10.41933 | 8278 ft | 269 kts | 196° |
| 2026-05-09 14:01 | 47.93224 | 10.41250 | 8934 ft | 275 kts | 195° |
| 2026-05-09 14:01 | 47.91356 | 10.40597 | 9658 ft | 278 kts | 195° |
| 2026-05-09 14:01 | 47.89465 | 10.39948 | 10459 ft | 279 kts | 194° |
| 2026-05-09 14:01 | 47.87485 | 10.39442 | 10661 ft | 304 kts | 181° |
| 2026-05-09 14:02 | 47.85400 | 10.40226 | 11191 ft | 319 kts | 152° |
| 2026-05-09 14:02 | 47.83737 | 10.42496 | 11858 ft | 331 kts | 127° |
| 2026-05-09 14:02 | 47.82675 | 10.45543 | 12542 ft | 339 kts | 112° |
| 2026-05-09 14:02 | 47.81932 | 10.48858 | 13216 ft | 344 kts | 109° |
| 2026-05-09 14:03 | 47.81213 | 10.52312 | 13906 ft | 349 kts | 109° |